PWSweather.com
Personal Weather Stations
Station Observations
KCOBLACK1
Chalet Park, Black Hawk, CO 80422

Chalet ParkBlack Hawk, CO 80422

Lat: 39.8294, Lon: -105.48

Elevation: 9370

Station Type: Vantage Pro2

http://www.oscaranddeb.com/weather

High Low Average
Temperature 65.0°F18.3°F 42.5°F5.8°F 51.0°F10.6°F
Dew Point 54.0°F12.2°F 40.1°F4.5°F 48.0°F8.9°F
Winds 8.8 mph -14.2 mph - Calm Calm 2.6 mph 4.2 mph
Wind Gusts 17.0 mph27.4 mph -- 7.2 mph11.6 mph
Humidity 98% 63% 90%
Pressure 29.86 in1011.20 in 29.66 in1004.40 in -
Precipitation 0.36 in9.10 in - -
Hour Temp Dew Point Humidity Winds Wind Gusts Pressure Precip Precip Rate Daily Precip Total
12:00 AM 51.9°F11.1°C 50.5°F10.3°C 95% 1.9 mph SE3.1 kmh SE 3.0 mph4.8 kmh 29.78 in1008.5 mb 0.00 in0.0 mm 0.00 in0.0 mm 0.10 in2.5 mm
12:05 AM 51.9°F11.1°C 50.5°F10.3°C 95% 1.5 mph SSE2.4 kmh SSE 3.0 mph4.8 kmh 29.78 in1008.5 mb 0.00 in0.0 mm 0.00 in0.0 mm 0.00 in0.0 mm
12:10 AM 51.5°F10.8°C 50.1°F10.1°C 95% Calm Calm 3.0 mph4.8 kmh 29.78 in1008.5 mb 0.00 in0.0 mm 0.00 in0.0 mm 0.00 in0.0 mm
12:15 AM 51.3°F10.7°C 49.9°F9.9°C 95% 0.5 mph E0.8 kmh E 3.0 mph4.8 kmh 29.78 in1008.5 mb 0.00 in0.0 mm 0.00 in0.0 mm 0.00 in0.0 mm
12:20 AM 51.0°F10.6°C 49.6°F9.8°C 95% 1.0 mph ENE1.6 kmh ENE 4.0 mph6.4 kmh 29.78 in1008.5 mb 0.00 in0.0 mm 0.00 in0.0 mm 0.00 in0.0 mm
12:25 AM 50.9°F10.5°C 49.5°F9.7°C 95% Calm Calm 4.0 mph6.4 kmh 29.78 in1008.5 mb 0.00 in0.0 mm 0.00 in0.0 mm 0.00 in0.0 mm
12:30 AM 50.9°F10.5°C 49.8°F9.9°C 96% Calm Calm -- 29.78 in1008.5 mb 0.00 in0.0 mm 0.00 in0.0 mm 0.00 in0.0 mm
12:35 AM 51.0°F10.6°C 49.9°F9.9°C 96% Calm Calm -- 29.78 in1008.5 mb 0.00 in0.0 mm 0.00 in0.0 mm 0.00 in0.0 mm
12:40 AM 51.1°F10.6°C 50.0°F10.0°C 96% 0.3 mph E0.5 kmh E 4.0 mph6.4 kmh 29.78 in1008.5 mb 0.00 in0.0 mm 0.00 in0.0 mm 0.00 in0.0 mm
12:45 AM 51.2°F10.7°C 50.1°F10.1°C 96% 0.7 mph E1.1 kmh E 4.0 mph6.4 kmh 29.78 in1008.5 mb 0.00 in0.0 mm 0.00 in0.0 mm 0.00 in0.0 mm
12:50 AM 51.2°F10.7°C 50.4°F10.2°C 97% 0.3 mph E0.5 kmh E 3.0 mph4.8 kmh 29.78 in1008.5 mb 0.00 in0.0 mm 0.00 in0.0 mm 0.00 in0.0 mm
12:55 AM 51.3°F10.7°C 50.5°F10.3°C 97% 2.4 mph E3.9 kmh E 6.0 mph9.7 kmh 29.78 in1008.5 mb 0.00 in0.0 mm 0.00 in0.0 mm 0.00 in0.0 mm
01:00 AM 51.3°F10.7°C 50.5°F10.3°C 97% 2.8 mph ENE4.5 kmh ENE 6.0 mph9.7 kmh 29.78 in1008.5 mb 0.00 in0.0 mm 0.00 in0.0 mm 0.00 in0.0 mm
01:05 AM 51.1°F10.6°C 50.0°F10.0°C 96% 1.9 mph NE3.1 kmh NE 6.0 mph9.7 kmh 29.78 in1008.5 mb 0.00 in0.0 mm 0.00 in0.0 mm 0.00 in0.0 mm
01:10 AM 50.8°F10.4°C 49.7°F9.8°C 96% 2.8 mph NE4.5 kmh NE 6.0 mph9.7 kmh 29.78 in1008.5 mb 0.00 in0.0 mm 0.00 in0.0 mm 0.00 in0.0 mm
01:15 AM 50.7°F10.4°C 49.9°F9.9°C 97% 2.6 mph NE4.2 kmh NE 6.0 mph9.7 kmh 29.78 in1008.5 mb 0.00 in0.0 mm 0.00 in0.0 mm 0.00 in0.0 mm
01:20 AM 50.6°F10.3°C 49.8°F9.9°C 97% 1.8 mph NE2.9 kmh NE 8.0 mph12.9 kmh 29.78 in1008.5 mb 0.00 in0.0 mm 0.00 in0.0 mm 0.00 in0.0 mm
01:25 AM 50.5°F10.3°C 49.4°F9.7°C 96% 2.2 mph NE3.5 kmh NE 8.0 mph12.9 kmh 29.78 in1008.5 mb 0.00 in0.0 mm 0.00 in0.0 mm 0.00 in0.0 mm
01:30 AM 50.3°F10.2°C 49.5°F9.7°C 97% 2.2 mph NNE3.5 kmh NNE 6.0 mph9.7 kmh 29.78 in1008.5 mb 0.00 in0.0 mm 0.00 in0.0 mm 0.00 in0.0 mm
01:35 AM 50.2°F10.1°C 49.4°F9.7°C 97% 2.5 mph NE4.0 kmh NE 6.0 mph9.7 kmh 29.78 in1008.5 mb 0.00 in0.0 mm 0.00 in0.0 mm 0.00 in0.0 mm
01:40 AM 50.1°F10.1°C 49.3°F9.6°C 97% 2.4 mph NE3.9 kmh NE 5.0 mph8.0 kmh 29.78 in1008.5 mb 0.00 in0.0 mm 0.00 in0.0 mm 0.00 in0.0 mm
01:45 AM 50.1°F10.1°C 49.3°F9.6°C 97% 2.8 mph NE4.5 kmh NE 6.0 mph9.7 kmh 29.78 in1008.5 mb 0.00 in0.0 mm 0.00 in0.0 mm 0.00 in0.0 mm
01:50 AM 50.0°F10.0°C 49.2°F9.6°C 97% 3.7 mph NE6.0 kmh NE 7.0 mph11.3 kmh 29.78 in1008.5 mb 0.00 in0.0 mm 0.00 in0.0 mm 0.00 in0.0 mm
01:55 AM 49.9°F9.9°C 49.1°F9.5°C 97% 3.9 mph NE6.3 kmh NE 8.0 mph12.9 kmh 29.78 in1008.5 mb 0.00 in0.0 mm 0.00 in0.0 mm 0.00 in0.0 mm
02:00 AM 49.8°F9.9°C 49.0°F9.4°C 97% 3.8 mph NE6.1 kmh NE 8.0 mph12.9 kmh 29.78 in1008.5 mb 0.00 in0.0 mm 0.00 in0.0 mm 0.00 in0.0 mm
02:05 AM 49.7°F9.8°C 48.9°F9.4°C 97% 4.4 mph NE7.1 kmh NE 8.0 mph12.9 kmh 29.78 in1008.5 mb 0.00 in0.0 mm 0.00 in0.0 mm 0.00 in0.0 mm
02:10 AM 49.6°F9.8°C 48.8°F9.3°C 97% 3.3 mph NE5.3 kmh NE 8.0 mph12.9 kmh 29.77 in1008.1 mb 0.00 in0.0 mm 0.00 in0.0 mm 0.00 in0.0 mm
02:15 AM 49.5°F9.7°C 48.7°F9.3°C 97% 3.6 mph NE5.8 kmh NE 8.0 mph12.9 kmh 29.77 in1008.1 mb 0.00 in0.0 mm 0.00 in0.0 mm 0.00 in0.0 mm
02:20 AM 49.5°F9.7°C 48.7°F9.3°C 97% 2.4 mph NE3.9 kmh NE 8.0 mph12.9 kmh 29.77 in1008.1 mb 0.00 in0.0 mm 0.00 in0.0 mm 0.00 in0.0 mm
02:25 AM 49.4°F9.7°C 48.6°F9.2°C 97% 2.0 mph ENE3.2 kmh ENE 6.0 mph9.7 kmh 29.78 in1008.5 mb 0.00 in0.0 mm 0.00 in0.0 mm 0.00 in0.0 mm
02:30 AM 49.4°F9.7°C 48.6°F9.2°C 97% 2.9 mph ENE4.7 kmh ENE 6.0 mph9.7 kmh 29.77 in1008.1 mb 0.00 in0.0 mm 0.00 in0.0 mm 0.00 in0.0 mm
02:35 AM 49.4°F9.7°C 48.6°F9.2°C 97% 2.7 mph ENE4.3 kmh ENE 7.0 mph11.3 kmh 29.77 in1008.1 mb 0.00 in0.0 mm 0.00 in0.0 mm 0.00 in0.0 mm
02:40 AM 49.2°F9.6°C 48.4°F9.1°C 97% 3.5 mph NE5.6 kmh NE 7.0 mph11.3 kmh 29.77 in1008.1 mb 0.00 in0.0 mm 0.00 in0.0 mm 0.00 in0.0 mm
02:45 AM 49.1°F9.5°C 48.3°F9.1°C 97% 2.6 mph NE4.2 kmh NE 7.0 mph11.3 kmh 29.77 in1008.1 mb 0.00 in0.0 mm 0.00 in0.0 mm 0.00 in0.0 mm
02:50 AM 49.0°F9.4°C 48.2°F9.0°C 97% 2.3 mph NE3.7 kmh NE 7.0 mph11.3 kmh 29.76 in1007.8 mb 0.00 in0.0 mm 0.00 in0.0 mm 0.00 in0.0 mm
02:55 AM 48.9°F9.4°C 48.1°F8.9°C 97% 2.2 mph ENE3.5 kmh ENE 6.0 mph9.7 kmh 29.77 in1008.1 mb 0.00 in0.0 mm 0.00 in0.0 mm 0.00 in0.0 mm
03:00 AM 48.8°F9.3°C 48.0°F8.9°C 97% 2.4 mph NE3.9 kmh NE 6.0 mph9.7 kmh 29.76 in1007.8 mb 0.00 in0.0 mm 0.00 in0.0 mm 0.00 in0.0 mm
03:05 AM 48.7°F9.3°C 47.9°F8.8°C 97% 1.9 mph NE3.1 kmh NE 5.0 mph8.0 kmh 29.76 in1007.8 mb 0.00 in0.0 mm 0.00 in0.0 mm 0.00 in0.0 mm
03:10 AM 48.6°F9.2°C 47.8°F8.8°C 97% 2.1 mph NE3.4 kmh NE 4.0 mph6.4 kmh 29.76 in1007.8 mb 0.00 in0.0 mm 0.00 in0.0 mm 0.00 in0.0 mm
03:15 AM 48.5°F9.2°C 47.7°F8.7°C 97% 3.1 mph NE5.0 kmh NE 5.0 mph8.0 kmh 29.76 in1007.8 mb 0.00 in0.0 mm 0.00 in0.0 mm 0.00 in0.0 mm
03:20 AM 48.4°F9.1°C 47.6°F8.7°C 97% 1.8 mph NE2.9 kmh NE 5.0 mph8.0 kmh 29.76 in1007.8 mb 0.00 in0.0 mm 0.00 in0.0 mm 0.00 in0.0 mm
03:25 AM 48.2°F9.0°C 47.4°F8.6°C 97% 2.3 mph NE3.7 kmh NE 4.0 mph6.4 kmh 29.76 in1007.8 mb 0.00 in0.0 mm 0.00 in0.0 mm 0.00 in0.0 mm
03:30 AM 48.3°F9.1°C 47.5°F8.6°C 97% 2.5 mph NE4.0 kmh NE 5.0 mph8.0 kmh 29.76 in1007.8 mb 0.00 in0.0 mm 0.00 in0.0 mm 0.00 in0.0 mm
03:35 AM 48.3°F9.1°C 47.5°F8.6°C 97% 1.6 mph NE2.6 kmh NE 5.0 mph8.0 kmh 29.77 in1008.1 mb 0.00 in0.0 mm 0.00 in0.0 mm 0.00 in0.0 mm
03:40 AM 48.4°F9.1°C 47.6°F8.7°C 97% 2.1 mph NE3.4 kmh NE 5.0 mph8.0 kmh 29.76 in1007.8 mb 0.00 in0.0 mm 0.00 in0.0 mm 0.00 in0.0 mm
03:45 AM 48.3°F9.1°C 47.5°F8.6°C 97% 1.6 mph NE2.6 kmh NE 5.0 mph8.0 kmh 29.77 in1008.1 mb 0.00 in0.0 mm 0.00 in0.0 mm 0.00 in0.0 mm
03:50 AM 48.3°F9.1°C 47.5°F8.6°C 97% 0.4 mph NE0.6 kmh NE 4.0 mph6.4 kmh 29.77 in1008.1 mb 0.00 in0.0 mm 0.00 in0.0 mm 0.00 in0.0 mm
03:55 AM 48.3°F9.1°C 47.5°F8.6°C 97% 1.8 mph ENE2.9 kmh ENE 4.0 mph6.4 kmh 29.77 in1008.1 mb 0.00 in0.0 mm 0.00 in0.0 mm 0.00 in0.0 mm
04:00 AM 48.3°F9.1°C 47.8°F8.8°C 98% 1.8 mph ENE2.9 kmh ENE 5.0 mph8.0 kmh 29.77 in1008.1 mb 0.00 in0.0 mm 0.00 in0.0 mm 0.00 in0.0 mm
04:05 AM 48.4°F9.1°C 47.9°F8.8°C 98% 2.8 mph ENE4.5 kmh ENE 7.0 mph11.3 kmh 29.77 in1008.1 mb 0.00 in0.0 mm 0.00 in0.0 mm 0.00 in0.0 mm
04:10 AM 48.5°F9.2°C 48.0°F8.9°C 98% 0.9 mph ENE1.4 kmh ENE 7.0 mph11.3 kmh 29.77 in1008.1 mb 0.00 in0.0 mm 0.00 in0.0 mm 0.00 in0.0 mm
04:15 AM 48.6°F9.2°C 48.1°F8.9°C 98% 0.9 mph E1.4 kmh E 5.0 mph8.0 kmh 29.77 in1008.1 mb 0.00 in0.0 mm 0.00 in0.0 mm 0.00 in0.0 mm
04:20 AM 48.6°F9.2°C 48.1°F8.9°C 98% 2.5 mph E4.0 kmh E 6.0 mph9.7 kmh 29.77 in1008.1 mb 0.00 in0.0 mm 0.00 in0.0 mm 0.00 in0.0 mm
04:25 AM 48.6°F9.2°C 48.1°F8.9°C 98% 2.4 mph ENE3.9 kmh ENE 6.0 mph9.7 kmh 29.77 in1008.1 mb 0.00 in0.0 mm 0.00 in0.0 mm 0.00 in0.0 mm
04:30 AM 48.5°F9.2°C 48.0°F8.9°C 98% 1.3 mph ENE2.1 kmh ENE 6.0 mph9.7 kmh 29.77 in1008.1 mb 0.00 in0.0 mm 0.00 in0.0 mm 0.00 in0.0 mm
04:35 AM 48.5°F9.2°C 48.0°F8.9°C 98% 0.9 mph ENE1.4 kmh ENE 5.0 mph8.0 kmh 29.77 in1008.1 mb 0.00 in0.0 mm 0.00 in0.0 mm 0.00 in0.0 mm
04:40 AM 48.5°F9.2°C 48.0°F8.9°C 98% 1.4 mph NE2.3 kmh NE 5.0 mph8.0 kmh 29.77 in1008.1 mb 0.00 in0.0 mm 0.00 in0.0 mm 0.00 in0.0 mm
04:45 AM 48.5°F9.2°C 48.0°F8.9°C 98% 1.3 mph ENE2.1 kmh ENE 5.0 mph8.0 kmh 29.77 in1008.1 mb 0.00 in0.0 mm 0.00 in0.0 mm 0.00 in0.0 mm
04:50 AM 48.5°F9.2°C 48.0°F8.9°C 98% 1.1 mph ENE1.8 kmh ENE 5.0 mph8.0 kmh 29.77 in1008.1 mb 0.00 in0.0 mm 0.00 in0.0 mm 0.00 in0.0 mm
04:55 AM 48.5°F9.2°C 48.0°F8.9°C 98% 1.2 mph ENE1.9 kmh ENE 5.0 mph8.0 kmh 29.77 in1008.1 mb 0.00 in0.0 mm 0.00 in0.0 mm 0.00 in0.0 mm
05:00 AM 48.4°F9.1°C 47.9°F8.8°C 98% 1.3 mph ENE2.1 kmh ENE 6.0 mph9.7 kmh 29.77 in1008.1 mb 0.00 in0.0 mm 0.00 in0.0 mm 0.00 in0.0 mm
05:05 AM 48.4°F9.1°C 47.9°F8.8°C 98% 1.4 mph ENE2.3 kmh ENE 6.0 mph9.7 kmh 29.77 in1008.1 mb 0.00 in0.0 mm 0.00 in0.0 mm 0.00 in0.0 mm
05:10 AM 48.3°F9.1°C 47.8°F8.8°C 98% 1.0 mph E1.6 kmh E 5.0 mph8.0 kmh 29.77 in1008.1 mb 0.00 in0.0 mm 0.00 in0.0 mm 0.00 in0.0 mm
05:15 AM 48.3°F9.1°C 47.8°F8.8°C 98% 1.3 mph ENE2.1 kmh ENE 5.0 mph8.0 kmh 29.77 in1008.1 mb 0.00 in0.0 mm 0.00 in0.0 mm 0.00 in0.0 mm
05:20 AM 48.3°F9.1°C 47.8°F8.8°C 98% 1.8 mph E2.9 kmh E 6.0 mph9.7 kmh 29.77 in1008.1 mb 0.00 in0.0 mm 0.00 in0.0 mm 0.00 in0.0 mm
05:25 AM 48.1°F8.9°C 47.6°F8.7°C 98% 1.9 mph E3.1 kmh E 6.0 mph9.7 kmh 29.77 in1008.1 mb 0.00 in0.0 mm 0.00 in0.0 mm 0.00 in0.0 mm
05:30 AM 48.1°F8.9°C 47.6°F8.7°C 98% 0.7 mph ESE1.1 kmh ESE 5.0 mph8.0 kmh 29.77 in1008.1 mb 0.00 in0.0 mm 0.00 in0.0 mm 0.00 in0.0 mm
05:35 AM 48.0°F8.9°C 47.5°F8.6°C 98% 0.2 mph E0.3 kmh E 3.0 mph4.8 kmh 29.77 in1008.1 mb 0.00 in0.0 mm 0.00 in0.0 mm 0.00 in0.0 mm
05:40 AM 47.9°F8.8°C 47.4°F8.6°C 98% Calm Calm 3.0 mph4.8 kmh 29.77 in1008.1 mb 0.00 in0.0 mm 0.00 in0.0 mm 0.00 in0.0 mm
05:45 AM 47.9°F8.8°C 47.4°F8.6°C 98% Calm Calm -- 29.77 in1008.1 mb 0.00 in0.0 mm 0.00 in0.0 mm 0.00 in0.0 mm
05:50 AM 47.9°F8.8°C 47.4°F8.6°C 98% Calm Calm -- 29.77 in1008.1 mb 0.00 in0.0 mm 0.00 in0.0 mm 0.00 in0.0 mm
05:55 AM 47.9°F8.8°C 47.4°F8.6°C 98% Calm Calm -- 29.77 in1008.1 mb 0.00 in0.0 mm 0.00 in0.0 mm 0.00 in0.0 mm
06:00 AM 47.9°F8.8°C 47.4°F8.6°C 98% Calm Calm -- 29.78 in1008.5 mb 0.00 in0.0 mm 0.00 in0.0 mm 0.00 in0.0 mm
06:05 AM 47.8°F8.8°C 47.3°F8.5°C 98% 0.2 mph ESE0.3 kmh ESE 2.0 mph3.2 kmh 29.78 in1008.5 mb 0.00 in0.0 mm 0.00 in0.0 mm 0.00 in0.0 mm
06:10 AM 47.8°F8.8°C 47.3°F8.5°C 98% 0.2 mph ESE0.3 kmh ESE 2.0 mph3.2 kmh 29.77 in1008.1 mb 0.00 in0.0 mm 0.00 in0.0 mm 0.00 in0.0 mm
06:15 AM 47.6°F8.7°C 47.1°F8.4°C 98% 1.2 mph SE1.9 kmh SE 3.0 mph4.8 kmh 29.78 in1008.5 mb 0.00 in0.0 mm 0.00 in0.0 mm 0.00 in0.0 mm
06:20 AM 47.6°F8.7°C 47.1°F8.4°C 98% 0.9 mph SE1.4 kmh SE 4.0 mph6.4 kmh 29.78 in1008.5 mb 0.01 in0.3 mm 0.12 in3.0 mm 0.01 in0.3 mm
06:25 AM 47.6°F8.7°C 47.1°F8.4°C 98% Calm Calm 4.0 mph6.4 kmh 29.78 in1008.5 mb 0.01 in0.3 mm 0.00 in0.0 mm 0.01 in0.3 mm
06:30 AM 47.6°F8.7°C 47.1°F8.4°C 98% 0.8 mph SE1.3 kmh SE 4.0 mph6.4 kmh 29.78 in1008.5 mb 0.01 in0.3 mm 0.00 in0.0 mm 0.01 in0.3 mm
06:35 AM 47.6°F8.7°C 47.1°F8.4°C 98% 0.8 mph SE1.3 kmh SE 4.0 mph6.4 kmh 29.78 in1008.5 mb 0.01 in0.3 mm 0.00 in0.0 mm 0.01 in0.3 mm
06:40 AM 47.6°F8.7°C 47.1°F8.4°C 98% Calm Calm 4.0 mph6.4 kmh 29.78 in1008.5 mb 0.01 in0.3 mm 0.00 in0.0 mm 0.01 in0.3 mm
06:45 AM 47.6°F8.7°C 47.1°F8.4°C 98% Calm Calm 1.0 mph1.6 kmh 29.78 in1008.5 mb 0.01 in0.3 mm 0.00 in0.0 mm 0.01 in0.3 mm
06:50 AM 47.7°F8.7°C 47.2°F8.4°C 98% 0.2 mph SE0.3 kmh SE 2.0 mph3.2 kmh 29.78 in1008.5 mb 0.01 in0.3 mm 0.00 in0.0 mm 0.01 in0.3 mm
06:55 AM 47.7°F8.7°C 47.2°F8.4°C 98% Calm Calm 2.0 mph3.2 kmh 29.78 in1008.5 mb 0.01 in0.3 mm 0.00 in0.0 mm 0.01 in0.3 mm
07:00 AM 47.7°F8.7°C 47.2°F8.4°C 98% Calm Calm 1.0 mph1.6 kmh 29.78 in1008.5 mb 0.01 in0.3 mm 0.00 in0.0 mm 0.01 in0.3 mm
07:05 AM 47.7°F8.7°C 47.2°F8.4°C 98% Calm Calm 1.0 mph1.6 kmh 29.78 in1008.5 mb 0.01 in0.3 mm 0.00 in0.0 mm 0.01 in0.3 mm
07:10 AM 47.6°F8.7°C 47.1°F8.4°C 98% 0.5 mph SSE0.8 kmh SSE 2.0 mph3.2 kmh 29.78 in1008.5 mb 0.01 in0.3 mm 0.00 in0.0 mm 0.01 in0.3 mm
07:15 AM 47.6°F8.7°C 47.1°F8.4°C 98% 0.8 mph S1.3 kmh S 4.0 mph6.4 kmh 29.78 in1008.5 mb 0.01 in0.3 mm 0.00 in0.0 mm 0.01 in0.3 mm
07:20 AM 47.7°F8.7°C 47.2°F8.4°C 98% 0.5 mph S0.8 kmh S 4.0 mph6.4 kmh 29.78 in1008.5 mb 0.00 in0.0 mm 0.00 in0.0 mm 0.01 in0.3 mm
07:25 AM 47.7°F8.7°C 47.2°F8.4°C 98% 0.3 mph S0.5 kmh S 3.0 mph4.8 kmh 29.78 in1008.5 mb 0.00 in0.0 mm 0.00 in0.0 mm 0.01 in0.3 mm
07:30 AM 47.7°F8.7°C 47.2°F8.4°C 98% 0.5 mph S0.8 kmh S 3.0 mph4.8 kmh 29.79 in1008.8 mb 0.00 in0.0 mm 0.00 in0.0 mm 0.01 in0.3 mm
07:35 AM 47.8°F8.8°C 47.3°F8.5°C 98% 0.8 mph SW1.3 kmh SW 3.0 mph4.8 kmh 29.78 in1008.5 mb 0.00 in0.0 mm 0.00 in0.0 mm 0.01 in0.3 mm
07:40 AM 47.8°F8.8°C 47.3°F8.5°C 98% 1.6 mph SSW2.6 kmh SSW 3.0 mph4.8 kmh 29.78 in1008.5 mb 0.00 in0.0 mm 0.00 in0.0 mm 0.01 in0.3 mm
07:45 AM 48.0°F8.9°C 47.5°F8.6°C 98% 0.2 mph S0.3 kmh S 3.0 mph4.8 kmh 29.78 in1008.5 mb 0.00 in0.0 mm 0.00 in0.0 mm 0.01 in0.3 mm
07:50 AM 48.4°F9.1°C 47.9°F8.8°C 98% 0.5 mph SW0.8 kmh SW 3.0 mph4.8 kmh 29.78 in1008.5 mb 0.00 in0.0 mm 0.00 in0.0 mm 0.01 in0.3 mm
07:55 AM 48.2°F9.0°C 47.7°F8.7°C 98% 1.8 mph SSW2.9 kmh SSW 6.0 mph9.7 kmh 29.78 in1008.5 mb 0.00 in0.0 mm 0.00 in0.0 mm 0.01 in0.3 mm
08:00 AM 48.1°F8.9°C 47.6°F8.7°C 98% 1.8 mph S2.9 kmh S 6.0 mph9.7 kmh 29.78 in1008.5 mb 0.00 in0.0 mm 0.00 in0.0 mm 0.01 in0.3 mm
08:05 AM 48.3°F9.1°C 47.8°F8.8°C 98% 0.5 mph SW0.8 kmh SW 6.0 mph9.7 kmh 29.78 in1008.5 mb 0.00 in0.0 mm 0.00 in0.0 mm 0.01 in0.3 mm
08:10 AM 48.1°F8.9°C 47.6°F8.7°C 98% 1.5 mph SW2.4 kmh SW 4.0 mph6.4 kmh 29.78 in1008.5 mb 0.00 in0.0 mm 0.00 in0.0 mm 0.01 in0.3 mm
08:15 AM 48.2°F9.0°C 47.7°F8.7°C 98% 1.8 mph S2.9 kmh S 4.0 mph6.4 kmh 29.78 in1008.5 mb 0.00 in0.0 mm 0.00 in0.0 mm 0.01 in0.3 mm
08:20 AM 48.4°F9.1°C 47.9°F8.8°C 98% 0.1 mph S0.2 kmh S 4.0 mph6.4 kmh 29.78 in1008.5 mb 0.00 in0.0 mm 0.00 in0.0 mm 0.01 in0.3 mm
08:25 AM 48.7°F9.3°C 48.2°F9.0°C 98% 0.5 mph SW0.8 kmh SW 3.0 mph4.8 kmh 29.77 in1008.1 mb 0.00 in0.0 mm 0.00 in0.0 mm 0.01 in0.3 mm
08:30 AM 48.6°F9.2°C 48.1°F8.9°C 98% 1.0 mph SW1.6 kmh SW 3.0 mph4.8 kmh 29.77 in1008.1 mb 0.00 in0.0 mm 0.00 in0.0 mm 0.01 in0.3 mm
08:35 AM 48.0°F8.9°C 47.5°F8.6°C 98% 1.8 mph SW2.9 kmh SW 3.0 mph4.8 kmh 29.78 in1008.5 mb 0.00 in0.0 mm 0.00 in0.0 mm 0.01 in0.3 mm
08:40 AM 48.2°F9.0°C 47.7°F8.7°C 98% 0.8 mph SSW1.3 kmh SSW 3.0 mph4.8 kmh 29.78 in1008.5 mb 0.00 in0.0 mm 0.00 in0.0 mm 0.01 in0.3 mm
08:45 AM 48.2°F9.0°C 47.7°F8.7°C 98% 0.2 mph S0.3 kmh S 3.0 mph4.8 kmh 29.78 in1008.5 mb 0.00 in0.0 mm 0.00 in0.0 mm 0.01 in0.3 mm
08:50 AM 48.2°F9.0°C 47.7°F8.7°C 98% 0.2 mph SSW0.3 kmh SSW 2.0 mph3.2 kmh 29.78 in1008.5 mb 0.00 in0.0 mm 0.00 in0.0 mm 0.01 in0.3 mm
08:55 AM 48.3°F9.1°C 47.8°F8.8°C 98% Calm Calm 2.0 mph3.2 kmh 29.77 in1008.1 mb 0.00 in0.0 mm 0.00 in0.0 mm 0.01 in0.3 mm
09:00 AM 48.3°F9.1°C 47.8°F8.8°C 98% Calm Calm 1.0 mph1.6 kmh 29.77 in1008.1 mb 0.00 in0.0 mm 0.00 in0.0 mm 0.01 in0.3 mm
09:05 AM 48.2°F9.0°C 47.7°F8.7°C 98% 0.1 mph S0.2 kmh S 2.0 mph3.2 kmh 29.77 in1008.1 mb 0.00 in0.0 mm 0.00 in0.0 mm 0.01 in0.3 mm
09:10 AM 48.5°F9.2°C 48.0°F8.9°C 98% 0.8 mph S1.3 kmh S 3.0 mph4.8 kmh 29.77 in1008.1 mb 0.00 in0.0 mm 0.00 in0.0 mm 0.01 in0.3 mm
09:15 AM 48.6°F9.2°C 48.1°F8.9°C 98% 1.5 mph S2.4 kmh S 6.0 mph9.7 kmh 29.77 in1008.1 mb 0.00 in0.0 mm 0.00 in0.0 mm 0.01 in0.3 mm
09:20 AM 48.7°F9.3°C 48.2°F9.0°C 98% 3.3 mph SSE5.3 kmh SSE 7.0 mph11.3 kmh 29.77 in1008.1 mb 0.00 in0.0 mm 0.00 in0.0 mm 0.01 in0.3 mm
09:25 AM 49.3°F9.6°C 48.8°F9.3°C 98% 0.6 mph SE1.0 kmh SE 7.0 mph11.3 kmh 29.77 in1008.1 mb 0.00 in0.0 mm 0.00 in0.0 mm 0.01 in0.3 mm
09:30 AM 49.6°F9.8°C 49.1°F9.5°C 98% 1.4 mph SSE2.3 kmh SSE 7.0 mph11.3 kmh 29.77 in1008.1 mb 0.00 in0.0 mm 0.00 in0.0 mm 0.01 in0.3 mm
09:35 AM 50.0°F10.0°C 49.2°F9.6°C 97% 1.3 mph SSE2.1 kmh SSE 7.0 mph11.3 kmh 29.77 in1008.1 mb 0.00 in0.0 mm 0.00 in0.0 mm 0.01 in0.3 mm
09:40 AM 49.9°F9.9°C 48.5°F9.2°C 95% 2.0 mph SE3.2 kmh SE 7.0 mph11.3 kmh 29.76 in1007.8 mb 0.00 in0.0 mm 0.00 in0.0 mm 0.01 in0.3 mm
09:45 AM 50.0°F10.0°C 48.9°F9.4°C 96% 0.4 mph SSE0.6 kmh SSE 7.0 mph11.3 kmh 29.76 in1007.8 mb 0.00 in0.0 mm 0.00 in0.0 mm 0.01 in0.3 mm
09:50 AM 50.1°F10.1°C 48.7°F9.3°C 95% 2.1 mph S3.4 kmh S 6.0 mph9.7 kmh 29.76 in1007.8 mb 0.00 in0.0 mm 0.00 in0.0 mm 0.01 in0.3 mm
09:55 AM 50.3°F10.2°C 48.9°F9.4°C 95% 0.9 mph S1.4 kmh S 7.0 mph11.3 kmh 29.76 in1007.8 mb 0.00 in0.0 mm 0.00 in0.0 mm 0.01 in0.3 mm
10:00 AM 51.0°F10.6°C 49.6°F9.8°C 95% 1.0 mph SE1.6 kmh SE 7.0 mph11.3 kmh 29.76 in1007.8 mb 0.00 in0.0 mm 0.00 in0.0 mm 0.01 in0.3 mm
10:05 AM 51.4°F10.8°C 49.4°F9.7°C 93% 1.9 mph S3.1 kmh S 7.0 mph11.3 kmh 29.75 in1007.5 mb 0.00 in0.0 mm 0.00 in0.0 mm 0.01 in0.3 mm
10:10 AM 51.4°F10.8°C 49.2°F9.6°C 92% 1.8 mph SE2.9 kmh SE 7.0 mph11.3 kmh 29.75 in1007.5 mb 0.00 in0.0 mm 0.00 in0.0 mm 0.01 in0.3 mm
10:15 AM 51.5°F10.8°C 49.0°F9.4°C 91% 2.6 mph S4.2 kmh S 8.0 mph12.9 kmh 29.75 in1007.5 mb 0.00 in0.0 mm 0.00 in0.0 mm 0.01 in0.3 mm
10:20 AM 51.6°F10.9°C 48.8°F9.3°C 90% 3.1 mph SSE5.0 kmh SSE 8.0 mph12.9 kmh 29.75 in1007.5 mb 0.00 in0.0 mm 0.00 in0.0 mm 0.01 in0.3 mm
10:25 AM 51.4°F10.8°C 48.6°F9.2°C 90% 4.2 mph S6.8 kmh S 10.0 mph16.1 kmh 29.75 in1007.5 mb 0.00 in0.0 mm 0.00 in0.0 mm 0.01 in0.3 mm
10:30 AM 51.4°F10.8°C 48.9°F9.4°C 91% 0.7 mph SSE1.1 kmh SSE 10.0 mph16.1 kmh 29.75 in1007.5 mb 0.00 in0.0 mm 0.00 in0.0 mm 0.01 in0.3 mm
10:35 AM 51.6°F10.9°C 49.1°F9.5°C 91% 1.1 mph S1.8 kmh S 7.0 mph11.3 kmh 29.75 in1007.5 mb 0.00 in0.0 mm 0.00 in0.0 mm 0.01 in0.3 mm
10:40 AM 51.3°F10.7°C 48.5°F9.2°C 90% 3.0 mph SSE4.8 kmh SSE 7.0 mph11.3 kmh 29.75 in1007.5 mb 0.00 in0.0 mm 0.00 in0.0 mm 0.01 in0.3 mm
10:45 AM 50.9°F10.5°C 48.1°F8.9°C 90% 2.5 mph S4.0 kmh S 7.0 mph11.3 kmh 29.75 in1007.5 mb 0.00 in0.0 mm 0.00 in0.0 mm 0.01 in0.3 mm
10:50 AM 50.8°F10.4°C 48.0°F8.9°C 90% 2.7 mph SE4.3 kmh SE 8.0 mph12.9 kmh 29.75 in1007.5 mb 0.00 in0.0 mm 0.00 in0.0 mm 0.01 in0.3 mm
10:55 AM 50.5°F10.3°C 47.7°F8.7°C 90% 4.8 mph SSE7.7 kmh SSE 10.0 mph16.1 kmh 29.75 in1007.5 mb 0.00 in0.0 mm 0.00 in0.0 mm 0.01 in0.3 mm
11:00 AM 50.4°F10.2°C 48.2°F9.0°C 92% 1.2 mph SE1.9 kmh SE 10.0 mph16.1 kmh 29.75 in1007.5 mb 0.01 in0.3 mm 0.01 in0.3 mm 0.02 in0.5 mm
11:05 AM 50.4°F10.2°C 48.5°F9.2°C 93% 2.3 mph SE3.7 kmh SE 8.0 mph12.9 kmh 29.75 in1007.5 mb 0.02 in0.5 mm 0.12 in3.0 mm 0.03 in0.8 mm
11:10 AM 50.4°F10.2°C 48.5°F9.2°C 93% 0.5 mph ESE0.8 kmh ESE 8.0 mph12.9 kmh 29.75 in1007.5 mb 0.02 in0.5 mm 0.00 in0.0 mm 0.03 in0.8 mm
11:15 AM 50.7°F10.4°C 49.3°F9.6°C 95% 1.8 mph ESE2.9 kmh ESE 5.0 mph8.0 kmh 29.74 in1007.1 mb 0.02 in0.5 mm 0.00 in0.0 mm 0.03 in0.8 mm
11:20 AM 51.2°F10.7°C 49.8°F9.9°C 95% 0.8 mph E1.3 kmh E 5.0 mph8.0 kmh 29.75 in1007.5 mb 0.02 in0.5 mm 0.00 in0.0 mm 0.03 in0.8 mm
11:25 AM 51.2°F10.7°C 49.5°F9.7°C 94% 3.6 mph ESE5.8 kmh ESE 7.0 mph11.3 kmh 29.74 in1007.1 mb 0.02 in0.5 mm 0.00 in0.0 mm 0.03 in0.8 mm
11:30 AM 51.3°F10.7°C 49.6°F9.8°C 94% 3.9 mph SE6.3 kmh SE 11.0 mph17.7 kmh 29.74 in1007.1 mb 0.02 in0.5 mm 0.00 in0.0 mm 0.03 in0.8 mm
11:35 AM 51.9°F11.1°C 50.8°F10.4°C 96% 1.6 mph SE2.6 kmh SE 11.0 mph17.7 kmh 29.73 in1006.8 mb 0.02 in0.5 mm 0.00 in0.0 mm 0.03 in0.8 mm
11:40 AM 52.9°F11.6°C 51.5°F10.8°C 95% 3.0 mph SE4.8 kmh SE 10.0 mph16.1 kmh 29.73 in1006.8 mb 0.02 in0.5 mm 0.00 in0.0 mm 0.03 in0.8 mm
11:45 AM 53.2°F11.8°C 51.2°F10.7°C 93% 2.8 mph SE4.5 kmh SE 10.0 mph16.1 kmh 29.73 in1006.8 mb 0.02 in0.5 mm 0.00 in0.0 mm 0.03 in0.8 mm
11:50 AM 53.6°F12.0°C 51.0°F10.6°C 91% 2.8 mph S4.5 kmh S 10.0 mph16.1 kmh 29.73 in1006.8 mb 0.02 in0.5 mm 0.00 in0.0 mm 0.03 in0.8 mm
11:55 AM 53.9°F12.2°C 51.3°F10.7°C 91% 3.7 mph SSE6.0 kmh SSE 10.0 mph16.1 kmh 29.73 in1006.8 mb 0.02 in0.5 mm 0.00 in0.0 mm 0.03 in0.8 mm
12:00 PM 54.2°F12.3°C 51.0°F10.6°C 89% 3.0 mph SSW4.8 kmh SSW 10.0 mph16.1 kmh 29.73 in1006.8 mb 0.01 in0.3 mm 0.00 in0.0 mm 0.03 in0.8 mm
12:05 PM 53.6°F12.0°C 50.1°F10.1°C 88% 3.4 mph S5.5 kmh S 9.0 mph14.5 kmh 29.73 in1006.8 mb 0.00 in0.0 mm 0.00 in0.0 mm 0.03 in0.8 mm
12:10 PM 53.0°F11.7°C 49.2°F9.6°C 87% 5.4 mph SSE8.7 kmh SSE 10.0 mph16.1 kmh 29.73 in1006.8 mb 0.00 in0.0 mm 0.00 in0.0 mm 0.03 in0.8 mm
12:15 PM 52.8°F11.6°C 49.9°F9.9°C 90% 2.2 mph SE3.5 kmh SE 10.0 mph16.1 kmh 29.73 in1006.8 mb 0.00 in0.0 mm 0.00 in0.0 mm 0.03 in0.8 mm
12:20 PM 53.4°F11.9°C 50.8°F10.4°C 91% 3.0 mph SSE4.8 kmh SSE 9.0 mph14.5 kmh 29.73 in1006.8 mb 0.00 in0.0 mm 0.00 in0.0 mm 0.03 in0.8 mm
12:25 PM 53.9°F12.2°C 50.4°F10.2°C 88% 4.6 mph SSE7.4 kmh SSE 12.0 mph19.3 kmh 29.73 in1006.8 mb 0.00 in0.0 mm 0.00 in0.0 mm 0.03 in0.8 mm
12:30 PM 53.9°F12.2°C 50.1°F10.1°C 87% 4.0 mph SSE6.4 kmh SSE 12.0 mph19.3 kmh 29.73 in1006.8 mb 0.00 in0.0 mm 0.00 in0.0 mm 0.03 in0.8 mm
12:35 PM 54.4°F12.4°C 50.3°F10.2°C 86% 2.0 mph SE3.2 kmh SE 10.0 mph16.1 kmh 29.72 in1006.4 mb 0.00 in0.0 mm 0.00 in0.0 mm 0.03 in0.8 mm
12:40 PM 55.1°F12.8°C 51.9°F11.1°C 89% 0.7 mph SSE1.1 kmh SSE 5.0 mph8.0 kmh 29.72 in1006.4 mb 0.00 in0.0 mm 0.00 in0.0 mm 0.03 in0.8 mm
12:45 PM 55.5°F13.1°C 51.1°F10.6°C 85% 2.8 mph S4.5 kmh S 7.0 mph11.3 kmh 29.71 in1006.1 mb 0.00 in0.0 mm 0.00 in0.0 mm 0.03 in0.8 mm
12:50 PM 55.4°F13.0°C 51.3°F10.7°C 86% 5.3 mph SSE8.5 kmh SSE 14.0 mph22.5 kmh 29.71 in1006.1 mb 0.00 in0.0 mm 0.00 in0.0 mm 0.03 in0.8 mm
12:55 PM 54.9°F12.7°C 50.5°F10.3°C 85% 6.6 mph SSE10.6 kmh SSE 15.0 mph24.1 kmh 29.71 in1006.1 mb 0.00 in0.0 mm 0.00 in0.0 mm 0.03 in0.8 mm
01:00 PM 55.1°F12.8°C 51.0°F10.6°C 86% 6.9 mph S11.1 kmh S 15.0 mph24.1 kmh 29.71 in1006.1 mb 0.00 in0.0 mm 0.00 in0.0 mm 0.03 in0.8 mm
01:05 PM 55.0°F12.8°C 51.5°F10.8°C 88% 5.2 mph S8.4 kmh S 14.0 mph22.5 kmh 29.71 in1006.1 mb 0.00 in0.0 mm 0.00 in0.0 mm 0.03 in0.8 mm
01:10 PM 55.0°F12.8°C 51.2°F10.7°C 87% 5.5 mph SE8.9 kmh SE 11.0 mph17.7 kmh 29.70 in1005.8 mb 0.00 in0.0 mm 0.00 in0.0 mm 0.03 in0.8 mm
01:15 PM 55.1°F12.8°C 50.4°F10.2°C 84% 1.5 mph SSE2.4 kmh SSE 11.0 mph17.7 kmh 29.70 in1005.8 mb 0.00 in0.0 mm 0.00 in0.0 mm 0.03 in0.8 mm
01:20 PM 55.3°F12.9°C 50.5°F10.3°C 84% 2.9 mph SW4.7 kmh SW 7.0 mph11.3 kmh 29.70 in1005.8 mb 0.00 in0.0 mm 0.00 in0.0 mm 0.03 in0.8 mm
01:25 PM 55.5°F13.1°C 51.1°F10.6°C 85% 2.4 mph SSW3.9 kmh SSW 7.0 mph11.3 kmh 29.70 in1005.8 mb 0.00 in0.0 mm 0.00 in0.0 mm 0.03 in0.8 mm
01:30 PM 56.7°F13.7°C 53.2°F11.8°C 88% 1.6 mph S2.6 kmh S 7.0 mph11.3 kmh 29.70 in1005.8 mb 0.00 in0.0 mm 0.00 in0.0 mm 0.03 in0.8 mm
01:35 PM 57.4°F14.1°C 50.9°F10.5°C 79% 2.4 mph SW3.9 kmh SW 7.0 mph11.3 kmh 29.70 in1005.8 mb 0.00 in0.0 mm 0.00 in0.0 mm 0.03 in0.8 mm
01:40 PM 57.8°F14.3°C 50.6°F10.3°C 77% 3.9 mph SW6.3 kmh SW 9.0 mph14.5 kmh 29.70 in1005.8 mb 0.00 in0.0 mm 0.00 in0.0 mm 0.03 in0.8 mm
01:45 PM 58.2°F14.6°C 50.3°F10.2°C 75% 4.3 mph SW6.9 kmh SW 9.0 mph14.5 kmh 29.70 in1005.8 mb 0.00 in0.0 mm 0.00 in0.0 mm 0.03 in0.8 mm
01:50 PM 57.3°F14.1°C 50.8°F10.4°C 79% 7.9 mph SSE12.7 kmh SSE 14.0 mph22.5 kmh 29.70 in1005.8 mb 0.00 in0.0 mm 0.00 in0.0 mm 0.03 in0.8 mm
01:55 PM 57.3°F14.1°C 51.9°F11.1°C 82% 4.1 mph SE6.6 kmh SE 14.0 mph22.5 kmh 29.69 in1005.4 mb 0.00 in0.0 mm 0.00 in0.0 mm 0.03 in0.8 mm
02:00 PM 57.7°F14.3°C 50.2°F10.1°C 76% 6.4 mph SSE10.3 kmh SSE 13.0 mph20.9 kmh 29.69 in1005.4 mb 0.00 in0.0 mm 0.00 in0.0 mm 0.03 in0.8 mm
02:05 PM 57.8°F14.3°C 51.0°F10.6°C 78% 6.7 mph SE10.8 kmh SE 13.0 mph20.9 kmh 29.69 in1005.4 mb 0.00 in0.0 mm 0.00 in0.0 mm 0.03 in0.8 mm
02:10 PM 58.3°F14.6°C 50.0°F10.0°C 74% 6.0 mph SE9.7 kmh SE 13.0 mph20.9 kmh 29.69 in1005.4 mb 0.00 in0.0 mm 0.00 in0.0 mm 0.03 in0.8 mm
02:15 PM 58.2°F14.6°C 50.0°F10.0°C 74% 7.0 mph SE11.3 kmh SE 14.0 mph22.5 kmh 29.69 in1005.4 mb 0.00 in0.0 mm 0.00 in0.0 mm 0.03 in0.8 mm
02:20 PM 58.4°F14.7°C 50.5°F10.3°C 75% 4.4 mph SE7.1 kmh SE 14.0 mph22.5 kmh 29.69 in1005.4 mb 0.00 in0.0 mm 0.00 in0.0 mm 0.03 in0.8 mm
02:25 PM 58.6°F14.8°C 50.7°F10.4°C 75% 4.5 mph SE7.2 kmh SE 11.0 mph17.7 kmh 29.69 in1005.4 mb 0.00 in0.0 mm 0.00 in0.0 mm 0.03 in0.8 mm
02:30 PM 59.0°F15.0°C 52.1°F11.2°C 78% 4.4 mph SSE7.1 kmh SSE 11.0 mph17.7 kmh 29.69 in1005.4 mb 0.00 in0.0 mm 0.00 in0.0 mm 0.03 in0.8 mm
02:35 PM 59.7°F15.4°C 50.7°F10.4°C 72% 4.7 mph SE7.6 kmh SE 14.0 mph22.5 kmh 29.69 in1005.4 mb 0.00 in0.0 mm 0.00 in0.0 mm 0.03 in0.8 mm
02:40 PM 59.5°F15.3°C 50.5°F10.3°C 72% 6.5 mph S10.5 kmh S 14.0 mph22.5 kmh 29.69 in1005.4 mb 0.00 in0.0 mm 0.00 in0.0 mm 0.03 in0.8 mm
02:45 PM 59.3°F15.2°C 52.4°F11.3°C 78% 5.6 mph SSE9.0 kmh SSE 13.0 mph20.9 kmh 29.70 in1005.8 mb 0.00 in0.0 mm 0.00 in0.0 mm 0.03 in0.8 mm
02:50 PM 59.7°F15.4°C 51.0°F10.6°C 73% 4.3 mph SSE6.9 kmh SSE 13.0 mph20.9 kmh 29.69 in1005.4 mb 0.00 in0.0 mm 0.00 in0.0 mm 0.03 in0.8 mm
02:55 PM 59.1°F15.1°C 50.5°F10.3°C 73% 7.5 mph S12.1 kmh S 16.0 mph25.7 kmh 29.69 in1005.4 mb 0.00 in0.0 mm 0.00 in0.0 mm 0.03 in0.8 mm
03:00 PM 58.6°F14.8°C 49.6°F9.8°C 72% 3.7 mph SSE6.0 kmh SSE 16.0 mph25.7 kmh 29.69 in1005.4 mb 0.00 in0.0 mm 0.00 in0.0 mm 0.03 in0.8 mm
03:05 PM 58.4°F14.7°C 50.5°F10.3°C 75% 3.4 mph SE5.5 kmh SE 8.0 mph12.9 kmh 29.69 in1005.4 mb 0.00 in0.0 mm 0.00 in0.0 mm 0.03 in0.8 mm
03:10 PM 59.2°F15.1°C 51.3°F10.7°C 75% 4.5 mph ESE7.2 kmh ESE 9.0 mph14.5 kmh 29.69 in1005.4 mb 0.00 in0.0 mm 0.00 in0.0 mm 0.03 in0.8 mm
03:15 PM 60.1°F15.6°C 51.0°F10.6°C 72% 2.8 mph SE4.5 kmh SE 9.0 mph14.5 kmh 29.69 in1005.4 mb 0.00 in0.0 mm 0.00 in0.0 mm 0.03 in0.8 mm
03:20 PM 61.1°F16.2°C 51.6°F10.9°C 71% 2.7 mph ESE4.3 kmh ESE 8.0 mph12.9 kmh 29.69 in1005.4 mb 0.00 in0.0 mm 0.00 in0.0 mm 0.03 in0.8 mm
03:25 PM 62.5°F16.9°C 51.8°F11.0°C 68% 4.8 mph E7.7 kmh E 11.0 mph17.7 kmh 29.68 in1005.1 mb 0.00 in0.0 mm 0.00 in0.0 mm 0.03 in0.8 mm
03:30 PM 62.7°F17.1°C 51.6°F10.9°C 67% 1.4 mph E2.3 kmh E 11.0 mph17.7 kmh 29.68 in1005.1 mb 0.00 in0.0 mm 0.00 in0.0 mm 0.03 in0.8 mm
03:35 PM 62.5°F16.9°C 49.7°F9.8°C 63% 1.3 mph ESE2.1 kmh ESE 5.0 mph8.0 kmh 29.68 in1005.1 mb 0.00 in0.0 mm 0.00 in0.0 mm 0.03 in0.8 mm
03:40 PM 62.0°F16.7°C 49.3°F9.6°C 63% 1.0 mph ESE1.6 kmh ESE 5.0 mph8.0 kmh 29.68 in1005.1 mb 0.00 in0.0 mm 0.00 in0.0 mm 0.03 in0.8 mm
03:45 PM 62.0°F16.7°C 51.7°F10.9°C 69% 0.9 mph E1.4 kmh E 6.0 mph9.7 kmh 29.67 in1004.7 mb 0.00 in0.0 mm 0.00 in0.0 mm 0.03 in0.8 mm
03:50 PM 63.0°F17.2°C 52.7°F11.5°C 69% 1.4 mph ENE2.3 kmh ENE 6.0 mph9.7 kmh 29.67 in1004.7 mb 0.00 in0.0 mm 0.00 in0.0 mm 0.03 in0.8 mm
03:55 PM 64.3°F17.9°C 53.5°F11.9°C 68% 2.8 mph ENE4.5 kmh ENE 8.0 mph12.9 kmh 29.66 in1004.4 mb 0.00 in0.0 mm 0.00 in0.0 mm 0.03 in0.8 mm
04:00 PM 65.0°F18.3°C 53.8°F12.1°C 67% 1.4 mph ENE2.3 kmh ENE 8.0 mph12.9 kmh 29.66 in1004.4 mb 0.00 in0.0 mm 0.00 in0.0 mm 0.03 in0.8 mm
04:05 PM 64.8°F18.2°C 52.8°F11.6°C 65% 2.4 mph E3.9 kmh E 8.0 mph12.9 kmh 29.66 in1004.4 mb 0.00 in0.0 mm 0.00 in0.0 mm 0.03 in0.8 mm
04:10 PM 64.1°F17.8°C 51.7°F10.9°C 64% 3.5 mph E5.6 kmh E 8.0 mph12.9 kmh 29.66 in1004.4 mb 0.00 in0.0 mm 0.00 in0.0 mm 0.03 in0.8 mm
04:15 PM 63.2°F17.3°C 52.1°F11.2°C 67% 1.9 mph E3.1 kmh E 8.0 mph12.9 kmh 29.66 in1004.4 mb 0.00 in0.0 mm 0.00 in0.0 mm 0.03 in0.8 mm
04:20 PM 62.3°F16.8°C 51.6°F10.9°C 68% 1.3 mph SE2.1 kmh SE 5.0 mph8.0 kmh 29.66 in1004.4 mb 0.00 in0.0 mm 0.00 in0.0 mm 0.03 in0.8 mm
04:25 PM 62.2°F16.8°C 51.5°F10.8°C 68% 2.1 mph SSE3.4 kmh SSE 7.0 mph11.3 kmh 29.66 in1004.4 mb 0.00 in0.0 mm 0.00 in0.0 mm 0.03 in0.8 mm
04:30 PM 62.5°F16.9°C 51.4°F10.8°C 67% 1.0 mph SW1.6 kmh SW 7.0 mph11.3 kmh 29.66 in1004.4 mb 0.00 in0.0 mm 0.00 in0.0 mm 0.03 in0.8 mm
04:35 PM 63.5°F17.5°C 51.5°F10.8°C 65% 2.6 mph E4.2 kmh E 7.0 mph11.3 kmh 29.66 in1004.4 mb 0.00 in0.0 mm 0.00 in0.0 mm 0.03 in0.8 mm
04:40 PM 63.4°F17.4°C 53.0°F11.7°C 69% 0.1 mph ESE0.2 kmh ESE 7.0 mph11.3 kmh 29.66 in1004.4 mb 0.00 in0.0 mm 0.00 in0.0 mm 0.03 in0.8 mm
04:45 PM 63.8°F17.7°C 52.6°F11.4°C 67% 0.7 mph WSW1.1 kmh WSW 3.0 mph4.8 kmh 29.66 in1004.4 mb 0.00 in0.0 mm 0.00 in0.0 mm 0.03 in0.8 mm
04:50 PM 64.1°F17.8°C 52.5°F11.4°C 66% 0.9 mph NE1.4 kmh NE 4.0 mph6.4 kmh 29.66 in1004.4 mb 0.00 in0.0 mm 0.00 in0.0 mm 0.03 in0.8 mm
04:55 PM 64.5°F18.1°C 53.7°F12.1°C 68% 4.9 mph ENE7.9 kmh ENE 12.0 mph19.3 kmh 29.67 in1004.7 mb 0.00 in0.0 mm 0.00 in0.0 mm 0.03 in0.8 mm
05:00 PM 63.6°F17.6°C 54.0°F12.2°C 71% 4.5 mph NE7.2 kmh NE 12.0 mph19.3 kmh 29.67 in1004.7 mb 0.00 in0.0 mm 0.00 in0.0 mm 0.03 in0.8 mm
05:05 PM 62.0°F16.7°C 53.2°F11.8°C 73% 6.8 mph NE10.9 kmh NE 12.0 mph19.3 kmh 29.67 in1004.7 mb 0.00 in0.0 mm 0.00 in0.0 mm 0.03 in0.8 mm
05:10 PM 60.5°F15.8°C 52.5°F11.4°C 75% 6.0 mph E9.7 kmh E 12.0 mph19.3 kmh 29.66 in1004.4 mb 0.00 in0.0 mm 0.00 in0.0 mm 0.03 in0.8 mm
05:15 PM 59.7°F15.4°C 52.8°F11.6°C 78% 4.7 mph E7.6 kmh E 12.0 mph19.3 kmh 29.67 in1004.7 mb 0.00 in0.0 mm 0.00 in0.0 mm 0.03 in0.8 mm
05:20 PM 59.0°F15.0°C 52.5°F11.4°C 79% 4.0 mph ENE6.4 kmh ENE 12.0 mph19.3 kmh 29.67 in1004.7 mb 0.00 in0.0 mm 0.00 in0.0 mm 0.03 in0.8 mm
05:25 PM 58.6°F14.8°C 52.1°F11.2°C 79% 5.5 mph NE8.9 kmh NE 12.0 mph19.3 kmh 29.67 in1004.7 mb 0.00 in0.0 mm 0.00 in0.0 mm 0.03 in0.8 mm
05:30 PM 58.1°F14.5°C 52.3°F11.3°C 81% 5.3 mph NE8.5 kmh NE 12.0 mph19.3 kmh 29.67 in1004.7 mb 0.00 in0.0 mm 0.00 in0.0 mm 0.03 in0.8 mm
05:35 PM 57.5°F14.2°C 51.7°F10.9°C 81% 5.3 mph NE8.5 kmh NE 12.0 mph19.3 kmh 29.67 in1004.7 mb 0.00 in0.0 mm 0.00 in0.0 mm 0.03 in0.8 mm
05:40 PM 57.0°F13.9°C 51.6°F10.9°C 82% 5.3 mph NE8.5 kmh NE 12.0 mph19.3 kmh 29.68 in1005.1 mb 0.00 in0.0 mm 0.00 in0.0 mm 0.03 in0.8 mm
05:45 PM 56.7°F13.7°C 51.9°F11.1°C 84% 5.0 mph NE8.0 kmh NE 12.0 mph19.3 kmh 29.68 in1005.1 mb 0.00 in0.0 mm 0.00 in0.0 mm 0.03 in0.8 mm
05:50 PM 56.4°F13.6°C 51.6°F10.9°C 84% 4.3 mph NE6.9 kmh NE 11.0 mph17.7 kmh 29.68 in1005.1 mb 0.00 in0.0 mm 0.00 in0.0 mm 0.03 in0.8 mm
05:55 PM 56.4°F13.6°C 52.3°F11.3°C 86% 3.8 mph NE6.1 kmh NE 11.0 mph17.7 kmh 29.68 in1005.1 mb 0.00 in0.0 mm 0.00 in0.0 mm 0.03 in0.8 mm
06:00 PM 56.0°F13.3°C 51.6°F10.9°C 85% 3.9 mph NE6.3 kmh NE 13.0 mph20.9 kmh 29.68 in1005.1 mb 0.00 in0.0 mm 0.00 in0.0 mm 0.03 in0.8 mm
06:05 PM 55.8°F13.2°C 51.7°F10.9°C 86% 4.4 mph NE7.1 kmh NE 13.0 mph20.9 kmh 29.69 in1005.4 mb 0.00 in0.0 mm 0.00 in0.0 mm 0.03 in0.8 mm
06:10 PM 55.7°F13.2°C 51.3°F10.7°C 85% 3.0 mph NE4.8 kmh NE 10.0 mph16.1 kmh 29.70 in1005.8 mb 0.00 in0.0 mm 0.00 in0.0 mm 0.03 in0.8 mm
06:15 PM 55.5°F13.1°C 51.1°F10.6°C 85% 4.7 mph NE7.6 kmh NE 9.0 mph14.5 kmh 29.69 in1005.4 mb 0.00 in0.0 mm 0.00 in0.0 mm 0.03 in0.8 mm
06:20 PM 55.3°F12.9°C 51.2°F10.7°C 86% 2.5 mph ENE4.0 kmh ENE 9.0 mph14.5 kmh 29.69 in1005.4 mb 0.00 in0.0 mm 0.00 in0.0 mm 0.03 in0.8 mm
06:25 PM 55.2°F12.9°C 51.1°F10.6°C 86% 4.6 mph NE7.4 kmh NE 12.0 mph19.3 kmh 29.69 in1005.4 mb 0.00 in0.0 mm 0.00 in0.0 mm 0.03 in0.8 mm
06:30 PM 55.0°F12.8°C 50.9°F10.5°C 86% 3.1 mph NE5.0 kmh NE 12.0 mph19.3 kmh 29.69 in1005.4 mb 0.00 in0.0 mm 0.00 in0.0 mm 0.03 in0.8 mm
06:35 PM 54.5°F12.5°C 50.4°F10.2°C 86% 4.8 mph ENE7.7 kmh ENE 11.0 mph17.7 kmh 29.69 in1005.4 mb 0.00 in0.0 mm 0.00 in0.0 mm 0.03 in0.8 mm
06:40 PM 54.0°F12.2°C 50.2°F10.1°C 87% 3.6 mph ENE5.8 kmh ENE 11.0 mph17.7 kmh 29.70 in1005.8 mb 0.00 in0.0 mm 0.00 in0.0 mm 0.03 in0.8 mm
06:45 PM 53.5°F11.9°C 49.4°F9.7°C 86% 2.9 mph E4.7 kmh E 9.0 mph14.5 kmh 29.70 in1005.8 mb 0.00 in0.0 mm 0.00 in0.0 mm 0.03 in0.8 mm
06:50 PM 53.0°F11.7°C 49.2°F9.6°C 87% 4.0 mph E6.4 kmh E 9.0 mph14.5 kmh 29.71 in1006.1 mb 0.00 in0.0 mm 0.00 in0.0 mm 0.03 in0.8 mm
06:55 PM 52.6°F11.4°C 49.1°F9.5°C 88% 4.4 mph NE7.1 kmh NE 11.0 mph17.7 kmh 29.71 in1006.1 mb 0.00 in0.0 mm 0.00 in0.0 mm 0.03 in0.8 mm
07:00 PM 52.2°F11.2°C 49.1°F9.5°C 89% 4.3 mph NE6.9 kmh NE 11.0 mph17.7 kmh 29.71 in1006.1 mb 0.00 in0.0 mm 0.00 in0.0 mm 0.03 in0.8 mm
07:05 PM 51.8°F11.0°C 49.0°F9.4°C 90% 4.6 mph NE7.4 kmh NE 10.0 mph16.1 kmh 29.71 in1006.1 mb 0.00 in0.0 mm 0.00 in0.0 mm 0.03 in0.8 mm
07:10 PM 51.0°F10.6°C 48.5°F9.2°C 91% 5.1 mph NE8.2 kmh NE 12.0 mph19.3 kmh 29.72 in1006.4 mb 0.00 in0.0 mm 0.00 in0.0 mm 0.03 in0.8 mm
07:15 PM 50.3°F10.2°C 47.8°F8.8°C 91% 4.6 mph NE7.4 kmh NE 12.0 mph19.3 kmh 29.73 in1006.8 mb 0.00 in0.0 mm 0.00 in0.0 mm 0.03 in0.8 mm
07:20 PM 49.7°F9.8°C 47.5°F8.6°C 92% 5.1 mph NE8.2 kmh NE 10.0 mph16.1 kmh 29.73 in1006.8 mb 0.00 in0.0 mm 0.00 in0.0 mm 0.03 in0.8 mm
07:25 PM 49.3°F9.6°C 47.4°F8.6°C 93% 5.6 mph NE9.0 kmh NE 11.0 mph17.7 kmh 29.73 in1006.8 mb 0.00 in0.0 mm 0.00 in0.0 mm 0.03 in0.8 mm
07:30 PM 48.8°F9.3°C 46.9°F8.3°C 93% 5.7 mph NE9.2 kmh NE 12.0 mph19.3 kmh 29.73 in1006.8 mb 0.00 in0.0 mm 0.00 in0.0 mm 0.03 in0.8 mm
07:35 PM 48.5°F9.2°C 46.9°F8.3°C 94% 5.9 mph NE9.5 kmh NE 12.0 mph19.3 kmh 29.74 in1007.1 mb 0.00 in0.0 mm 0.00 in0.0 mm 0.03 in0.8 mm
07:40 PM 47.8°F8.8°C 46.2°F7.9°C 94% 6.8 mph ENE10.9 kmh ENE 16.0 mph25.7 kmh 29.75 in1007.5 mb 0.00 in0.0 mm 0.00 in0.0 mm 0.03 in0.8 mm
07:45 PM 47.0°F8.3°C 45.1°F7.3°C 93% 7.4 mph ENE11.9 kmh ENE 16.0 mph25.7 kmh 29.74 in1007.1 mb 0.00 in0.0 mm 0.00 in0.0 mm 0.03 in0.8 mm
07:50 PM 46.4°F8.0°C 44.8°F7.1°C 94% 5.8 mph ENE9.3 kmh ENE 15.0 mph24.1 kmh 29.75 in1007.5 mb 0.00 in0.0 mm 0.00 in0.0 mm 0.03 in0.8 mm
07:55 PM 46.2°F7.9°C 44.6°F7.0°C 94% 4.5 mph E7.2 kmh E 12.0 mph19.3 kmh 29.75 in1007.5 mb 0.00 in0.0 mm 0.00 in0.0 mm 0.03 in0.8 mm
08:00 PM 46.0°F7.8°C 44.4°F6.9°C 94% 5.1 mph ENE8.2 kmh ENE 10.0 mph16.1 kmh 29.76 in1007.8 mb 0.00 in0.0 mm 0.00 in0.0 mm 0.03 in0.8 mm
08:05 PM 45.8°F7.7°C 44.2°F6.8°C 94% 4.9 mph NE7.9 kmh NE 10.0 mph16.1 kmh 29.77 in1008.1 mb 0.00 in0.0 mm 0.00 in0.0 mm 0.03 in0.8 mm
08:10 PM 45.6°F7.6°C 44.0°F6.7°C 94% 4.8 mph NE7.7 kmh NE 12.0 mph19.3 kmh 29.76 in1007.8 mb 0.00 in0.0 mm 0.00 in0.0 mm 0.03 in0.8 mm
08:15 PM 45.4°F7.4°C 43.5°F6.4°C 93% 7.1 mph NE11.4 kmh NE 13.0 mph20.9 kmh 29.76 in1007.8 mb 0.00 in0.0 mm 0.00 in0.0 mm 0.03 in0.8 mm
08:20 PM 45.0°F7.2°C 42.5°F5.8°C 91% 6.5 mph NE10.5 kmh NE 14.0 mph22.5 kmh 29.77 in1008.1 mb 0.00 in0.0 mm 0.00 in0.0 mm 0.03 in0.8 mm
08:25 PM 44.7°F7.1°C 42.2°F5.7°C 91% 7.5 mph NE12.1 kmh NE 14.0 mph22.5 kmh 29.77 in1008.1 mb 0.00 in0.0 mm 0.00 in0.0 mm 0.03 in0.8 mm
08:30 PM 44.5°F6.9°C 41.8°F5.4°C 90% 8.6 mph NE13.8 kmh NE 17.0 mph27.4 kmh 29.77 in1008.1 mb 0.00 in0.0 mm 0.00 in0.0 mm 0.03 in0.8 mm
08:35 PM 44.2°F6.8°C 41.2°F5.1°C 89% 8.8 mph NNE14.2 kmh NNE 17.0 mph27.4 kmh 29.78 in1008.5 mb 0.00 in0.0 mm 0.00 in0.0 mm 0.03 in0.8 mm
08:40 PM 44.1°F6.7°C 41.4°F5.2°C 90% 8.6 mph NE13.8 kmh NE 16.0 mph25.7 kmh 29.79 in1008.8 mb 0.00 in0.0 mm 0.00 in0.0 mm 0.03 in0.8 mm
08:45 PM 44.0°F6.7°C 41.3°F5.2°C 90% 6.3 mph NE10.1 kmh NE 16.0 mph25.7 kmh 29.80 in1009.1 mb 0.00 in0.0 mm 0.00 in0.0 mm 0.03 in0.8 mm
08:50 PM 44.0°F6.7°C 41.3°F5.2°C 90% 6.7 mph NE10.8 kmh NE 12.0 mph19.3 kmh 29.80 in1009.1 mb 0.00 in0.0 mm 0.00 in0.0 mm 0.03 in0.8 mm
08:55 PM 44.0°F6.7°C 41.3°F5.2°C 90% 5.6 mph NE9.0 kmh NE 12.0 mph19.3 kmh 29.80 in1009.1 mb 0.00 in0.0 mm 0.00 in0.0 mm 0.03 in0.8 mm
09:00 PM 43.8°F6.6°C 41.1°F5.1°C 90% 6.6 mph NE10.6 kmh NE 11.0 mph17.7 kmh 29.80 in1009.1 mb 0.00 in0.0 mm 0.00 in0.0 mm 0.03 in0.8 mm
09:05 PM 43.7°F6.5°C 41.2°F5.1°C 91% 5.1 mph NE8.2 kmh NE 11.0 mph17.7 kmh 29.80 in1009.1 mb 0.00 in0.0 mm 0.00 in0.0 mm 0.03 in0.8 mm
09:10 PM 43.7°F6.5°C 41.2°F5.1°C 91% 4.4 mph NE7.1 kmh NE 10.0 mph16.1 kmh 29.81 in1009.5 mb 0.00 in0.0 mm 0.00 in0.0 mm 0.03 in0.8 mm
09:15 PM 43.7°F6.5°C 41.5°F5.3°C 92% 4.0 mph NE6.4 kmh NE 9.0 mph14.5 kmh 29.81 in1009.5 mb 0.00 in0.0 mm 0.00 in0.0 mm 0.03 in0.8 mm
09:20 PM 43.8°F6.6°C 41.6°F5.3°C 92% 3.5 mph NE5.6 kmh NE 9.0 mph14.5 kmh 29.81 in1009.5 mb 0.00 in0.0 mm 0.00 in0.0 mm 0.03 in0.8 mm
09:25 PM 43.8°F6.6°C 41.6°F5.3°C 92% 3.7 mph NE6.0 kmh NE 8.0 mph12.9 kmh 29.81 in1009.5 mb 0.00 in0.0 mm 0.00 in0.0 mm 0.03 in0.8 mm
09:30 PM 43.8°F6.6°C 41.6°F5.3°C 92% 2.5 mph NE4.0 kmh NE 7.0 mph11.3 kmh 29.81 in1009.5 mb 0.00 in0.0 mm 0.00 in0.0 mm 0.03 in0.8 mm
09:35 PM 43.8°F6.6°C 41.6°F5.3°C 92% 2.4 mph NE3.9 kmh NE 7.0 mph11.3 kmh 29.82 in1009.8 mb 0.00 in0.0 mm 0.00 in0.0 mm 0.03 in0.8 mm
09:40 PM 43.8°F6.6°C 41.6°F5.3°C 92% 2.1 mph NE3.4 kmh NE 7.0 mph11.3 kmh 29.82 in1009.8 mb 0.00 in0.0 mm 0.00 in0.0 mm 0.03 in0.8 mm
09:45 PM 43.8°F6.6°C 41.6°F5.3°C 92% 2.4 mph NE3.9 kmh NE 7.0 mph11.3 kmh 29.81 in1009.5 mb 0.00 in0.0 mm 0.00 in0.0 mm 0.03 in0.8 mm
09:50 PM 43.7°F6.5°C 41.5°F5.3°C 92% 2.4 mph NNE3.9 kmh NNE 5.0 mph8.0 kmh 29.81 in1009.5 mb 0.00 in0.0 mm 0.00 in0.0 mm 0.03 in0.8 mm
09:55 PM 43.6°F6.4°C 41.4°F5.2°C 92% Calm Calm 4.0 mph6.4 kmh 29.81 in1009.5 mb 0.00 in0.0 mm 0.00 in0.0 mm 0.03 in0.8 mm
10:00 PM 43.6°F6.4°C 41.7°F5.4°C 93% 0.1 mph E0.2 kmh E 2.0 mph3.2 kmh 29.82 in1009.8 mb 0.00 in0.0 mm 0.00 in0.0 mm 0.03 in0.8 mm
10:05 PM 43.4°F6.3°C 41.5°F5.3°C 93% 0.8 mph E1.3 kmh E 3.0 mph4.8 kmh 29.82 in1009.8 mb 0.00 in0.0 mm 0.00 in0.0 mm 0.03 in0.8 mm
10:10 PM 43.4°F6.3°C 41.5°F5.3°C 93% Calm Calm 3.0 mph4.8 kmh 29.83 in1010.2 mb 0.00 in0.0 mm 0.00 in0.0 mm 0.03 in0.8 mm
10:15 PM 43.4°F6.3°C 41.5°F5.3°C 93% 0.1 mph E0.2 kmh E 1.0 mph1.6 kmh 29.83 in1010.2 mb 0.00 in0.0 mm 0.00 in0.0 mm 0.03 in0.8 mm
10:20 PM 43.5°F6.4°C 41.6°F5.3°C 93% 0.1 mph E0.2 kmh E 1.0 mph1.6 kmh 29.83 in1010.2 mb 0.00 in0.0 mm 0.00 in0.0 mm 0.03 in0.8 mm
10:25 PM 43.5°F6.4°C 41.6°F5.3°C 93% 0.5 mph E0.8 kmh E 2.0 mph3.2 kmh 29.83 in1010.2 mb 0.00 in0.0 mm 0.00 in0.0 mm 0.03 in0.8 mm
10:30 PM 43.4°F6.3°C 41.5°F5.3°C 93% 1.5 mph E2.4 kmh E 3.0 mph4.8 kmh 29.83 in1010.2 mb 0.00 in0.0 mm 0.00 in0.0 mm 0.03 in0.8 mm
10:35 PM 43.4°F6.3°C 41.5°F5.3°C 93% 0.8 mph ESE1.3 kmh ESE 3.0 mph4.8 kmh 29.84 in1010.5 mb 0.00 in0.0 mm 0.00 in0.0 mm 0.03 in0.8 mm
10:40 PM 43.2°F6.2°C 41.3°F5.2°C 93% 2.2 mph SE3.5 kmh SE 4.0 mph6.4 kmh 29.84 in1010.5 mb 0.00 in0.0 mm 0.00 in0.0 mm 0.03 in0.8 mm
10:45 PM 43.3°F6.3°C 41.4°F5.2°C 93% 0.5 mph SSE0.8 kmh SSE 4.0 mph6.4 kmh 29.84 in1010.5 mb 0.00 in0.0 mm 0.00 in0.0 mm 0.03 in0.8 mm
10:50 PM 43.2°F6.2°C 41.3°F5.2°C 93% 1.1 mph SSE1.8 kmh SSE 2.0 mph3.2 kmh 29.84 in1010.5 mb 0.00 in0.0 mm 0.00 in0.0 mm 0.03 in0.8 mm
10:55 PM 43.1°F6.2°C 41.2°F5.1°C 93% 1.9 mph SSE3.1 kmh SSE 3.0 mph4.8 kmh 29.84 in1010.5 mb 0.00 in0.0 mm 0.00 in0.0 mm 0.03 in0.8 mm
11:00 PM 43.1°F6.2°C 41.2°F5.1°C 93% 0.6 mph SSE1.0 kmh SSE 3.0 mph4.8 kmh 29.84 in1010.5 mb 0.00 in0.0 mm 0.00 in0.0 mm 0.03 in0.8 mm
11:05 PM 43.1°F6.2°C 41.2°F5.1°C 93% 0.1 mph SSE0.2 kmh SSE 2.0 mph3.2 kmh 29.84 in1010.5 mb 0.00 in0.0 mm 0.00 in0.0 mm 0.03 in0.8 mm
11:10 PM 43.1°F6.2°C 41.2°F5.1°C 93% 0.3 mph SSE0.5 kmh SSE 2.0 mph3.2 kmh 29.85 in1010.8 mb 0.00 in0.0 mm 0.00 in0.0 mm 0.03 in0.8 mm
11:15 PM 43.1°F6.2°C 41.2°F5.1°C 93% 0.5 mph SE0.8 kmh SE 3.0 mph4.8 kmh 29.85 in1010.8 mb 0.00 in0.0 mm 0.00 in0.0 mm 0.03 in0.8 mm
11:20 PM 42.9°F6.1°C 41.0°F5.0°C 93% Calm Calm 3.0 mph4.8 kmh 29.85 in1010.8 mb 0.00 in0.0 mm 0.00 in0.0 mm 0.03 in0.8 mm
11:25 PM 43.0°F6.1°C 41.1°F5.1°C 93% 0.8 mph SE1.3 kmh SE 2.0 mph3.2 kmh 29.85 in1010.8 mb 0.00 in0.0 mm 0.00 in0.0 mm 0.03 in0.8 mm
11:30 PM 42.9°F6.1°C 41.0°F5.0°C 93% 0.7 mph E1.1 kmh E 3.0 mph4.8 kmh 29.86 in1011.2 mb 0.00 in0.0 mm 0.00 in0.0 mm 0.03 in0.8 mm
11:35 PM 42.7°F5.9°C 40.5°F4.7°C 92% 0.1 mph E0.2 kmh E 3.0 mph4.8 kmh 29.86 in1011.2 mb 0.00 in0.0 mm 0.00 in0.0 mm 0.03 in0.8 mm
11:40 PM 42.6°F5.9°C 40.2°F4.6°C 91% 0.5 mph E0.8 kmh E 2.0 mph3.2 kmh 29.86 in1011.2 mb 0.00 in0.0 mm 0.00 in0.0 mm 0.03 in0.8 mm
11:45 PM 42.6°F5.9°C 40.2°F4.6°C 91% 0.6 mph E1.0 kmh E 2.0 mph3.2 kmh 29.86 in1011.2 mb 0.00 in0.0 mm 0.00 in0.0 mm 0.03 in0.8 mm
11:50 PM 42.5°F5.8°C 40.3°F4.6°C 92% Calm Calm 2.0 mph3.2 kmh 29.86 in1011.2 mb 0.00 in0.0 mm 0.00 in0.0 mm 0.03 in0.8 mm
11:55 PM 42.5°F5.8°C 40.1°F4.5°C 91% Calm Calm -- 29.86 in1011.2 mb 0.00 in0.0 mm 0.00 in0.0 mm 0.03 in0.8 mm